sensor_id;sensor_type;location;lat;lon;timestamp;pressure;altitude;pressure_sealevel;temperature;humidity
74544;BME280;63016;55.030;38.710;2023-05-09T00:01:11;101531.25;;;5.77;43.44
74544;BME280;63016;55.030;38.710;2023-05-09T00:03:39;101531.25;;;5.77;43.04
74544;BME280;63016;55.030;38.710;2023-05-09T00:06:07;101531.44;;;5.74;42.81
74544;BME280;63016;55.030;38.710;2023-05-09T00:08:33;101528.97;;;5.72;42.94
74544;BME280;63016;55.030;38.710;2023-05-09T00:11:00;101542.06;;;5.69;42.89
74544;BME280;63016;55.030;38.710;2023-05-09T00:13:26;101537.94;;;5.66;42.86
74544;BME280;63016;55.030;38.710;2023-05-09T00:15:51;101539.03;;;5.62;42.69
74544;BME280;63016;55.030;38.710;2023-05-09T00:18:23;101524.16;;;5.52;43.23
74544;BME280;63016;55.030;38.710;2023-05-09T00:20:49;101537.66;;;5.57;42.71
74544;BME280;63016;55.030;38.710;2023-05-09T00:23:14;101535.16;;;5.55;43.19
74544;BME280;63016;55.030;38.710;2023-05-09T00:25:41;101538.88;;;5.51;42.97
74544;BME280;63016;55.030;38.710;2023-05-09T00:28:07;101541.53;;;5.50;42.93
74544;BME280;63016;55.030;38.710;2023-05-09T00:30:32;101540.81;;;5.48;42.89
74544;BME280;63016;55.030;38.710;2023-05-09T00:32:58;101537.56;;;5.44;42.80
74544;BME280;63016;55.030;38.710;2023-05-09T00:35:24;101530.81;;;5.41;42.76
74544;BME280;63016;55.030;38.710;2023-05-09T00:37:49;101534.31;;;5.40;42.68
74544;BME280;63016;55.030;38.710;2023-05-09T00:40:15;101536.28;;;5.37;43.01
74544;BME280;63016;55.030;38.710;2023-05-09T00:42:40;101542.44;;;5.34;42.66
74544;BME280;63016;55.030;38.710;2023-05-09T00:45:07;101524.78;;;5.27;43.04
74544;BME280;63016;55.030;38.710;2023-05-09T00:47:32;101535.78;;;5.30;43.11
74544;BME280;63016;55.030;38.710;2023-05-09T00:50:00;101536.16;;;5.24;42.81
74544;BME280;63016;55.030;38.710;2023-05-09T00:52:25;101529.50;;;5.20;43.32
74544;BME280;63016;55.030;38.710;2023-05-09T00:54:54;101531.34;;;5.18;43.27
74544;BME280;63016;55.030;38.710;2023-05-09T00:57:20;101528.22;;;5.13;42.94
74544;BME280;63016;55.030;38.710;2023-05-09T00:59:46;101539.44;;;5.12;43.10
74544;BME280;63016;55.030;38.710;2023-05-09T01:02:12;101534.47;;;5.09;43.45
74544;BME280;63016;55.030;38.710;2023-05-09T01:04:39;101538.91;;;5.07;43.31
74544;BME280;63016;55.030;38.710;2023-05-09T01:07:21;101538.16;;;5.05;43.55
74544;BME280;63016;55.030;38.710;2023-05-09T01:20:43;101522.41;;;4.79;43.16
74544;BME280;63016;55.030;38.710;2023-05-09T01:30:55;101521.91;;;4.73;43.28
74544;BME280;63016;55.030;38.710;2023-05-09T01:33:23;101535.66;;;4.73;43.32
74544;BME280;63016;55.030;38.710;2023-05-09T01:36:03;101531.53;;;4.71;43.33
74544;BME280;63016;55.030;38.710;2023-05-09T01:38:30;101532.50;;;4.68;43.29
74544;BME280;63016;55.030;38.710;2023-05-09T01:40:58;101531.00;;;4.64;43.47
74544;BME280;63016;55.030;38.710;2023-05-09T01:43:27;101533.44;;;4.67;43.25
74544;BME280;63016;55.030;38.710;2023-05-09T01:45:54;101537.69;;;4.68;43.73
74544;BME280;63016;55.030;38.710;2023-05-09T01:48:22;101541.19;;;4.67;43.90
74544;BME280;63016;55.030;38.710;2023-05-09T01:50:51;101536.94;;;4.66;43.28
74544;BME280;63016;55.030;38.710;2023-05-09T01:53:18;101540.53;;;4.63;43.30
74544;BME280;63016;55.030;38.710;2023-05-09T01:55:46;101549.22;;;4.62;43.44
74544;BME280;63016;55.030;38.710;2023-05-09T01:58:13;101544.13;;;4.61;43.61
74544;BME280;63016;55.030;38.710;2023-05-09T02:00:41;101547.72;;;4.58;43.73
74544;BME280;63016;55.030;38.710;2023-05-09T02:03:07;101546.81;;;4.59;43.93
74544;BME280;63016;55.030;38.710;2023-05-09T02:05:33;101549.41;;;4.59;44.00
74544;BME280;63016;55.030;38.710;2023-05-09T02:08:00;101545.22;;;4.57;43.83
74544;BME280;63016;55.030;38.710;2023-05-09T02:10:27;101542.63;;;4.57;44.20
74544;BME280;63016;55.030;38.710;2023-05-09T02:12:53;101550.50;;;4.55;43.89
74544;BME280;63016;55.030;38.710;2023-05-09T02:15:20;101554.81;;;4.55;44.03
74544;BME280;63016;55.030;38.710;2023-05-09T02:17:45;101540.47;;;4.49;43.90
74544;BME280;63016;55.030;38.710;2023-05-09T02:20:11;101545.38;;;4.54;43.90
74544;BME280;63016;55.030;38.710;2023-05-09T02:22:38;101550.56;;;4.54;43.87
74544;BME280;63016;55.030;38.710;2023-05-09T02:25:06;101553.22;;;4.52;43.83
74544;BME280;63016;55.030;38.710;2023-05-09T02:27:33;101553.13;;;4.54;44.29
74544;BME280;63016;55.030;38.710;2023-05-09T02:30:02;101554.06;;;4.53;44.11
74544;BME280;63016;55.030;38.710;2023-05-09T02:32:30;101553.31;;;4.51;44.34
74544;BME280;63016;55.030;38.710;2023-05-09T02:35:00;101560.16;;;4.52;43.91
74544;BME280;63016;55.030;38.710;2023-05-09T02:37:26;101557.47;;;4.53;44.29
74544;BME280;63016;55.030;38.710;2023-05-09T02:39:53;101549.81;;;4.52;44.17
74544;BME280;63016;55.030;38.710;2023-05-09T02:42:23;101554.88;;;4.53;44.88
74544;BME280;63016;55.030;38.710;2023-05-09T02:44:54;101550.56;;;4.54;44.34
74544;BME280;63016;55.030;38.710;2023-05-09T02:47:20;101553.72;;;4.59;44.20
74544;BME280;63016;55.030;38.710;2023-05-09T02:49:46;101557.22;;;4.58;44.17
74544;BME280;63016;55.030;38.710;2023-05-09T02:52:12;101569.06;;;4.62;44.59
74544;BME280;63016;55.030;38.710;2023-05-09T02:54:38;101561.22;;;4.63;44.43
74544;BME280;63016;55.030;38.710;2023-05-09T02:57:03;101573.16;;;4.66;44.24
74544;BME280;63016;55.030;38.710;2023-05-09T02:59:29;101565.22;;;4.69;44.20
74544;BME280;63016;55.030;38.710;2023-05-09T03:01:56;101567.03;;;4.67;44.94
74544;BME280;63016;55.030;38.710;2023-05-09T03:04:21;101565.13;;;4.71;44.53
74544;BME280;63016;55.030;38.710;2023-05-09T03:06:47;101565.97;;;4.71;44.59
74544;BME280;63016;55.030;38.710;2023-05-09T03:09:13;101566.69;;;4.73;45.27
74544;BME280;63016;55.030;38.710;2023-05-09T03:11:38;101569.84;;;4.78;45.29
74544;BME280;63016;55.030;38.710;2023-05-09T03:14:04;101568.97;;;4.79;45.24
74544;BME280;63016;55.030;38.710;2023-05-09T03:16:30;101575.03;;;4.78;45.15
74544;BME280;63016;55.030;38.710;2023-05-09T03:18:56;101553.69;;;4.75;44.92
74544;BME280;63016;55.030;38.710;2023-05-09T03:21:21;101572.69;;;4.89;45.18
74544;BME280;63016;55.030;38.710;2023-05-09T03:23:47;101574.34;;;4.90;44.69
74544;BME280;63016;55.030;38.710;2023-05-09T03:26:12;101565.66;;;4.92;45.18
74544;BME280;63016;55.030;38.710;2023-05-09T03:28:39;101577.97;;;5.02;45.23
74544;BME280;63016;55.030;38.710;2023-05-09T03:31:05;101578.63;;;5.06;45.19
74544;BME280;63016;55.030;38.710;2023-05-09T03:33:30;101582.72;;;5.10;44.83
74544;BME280;63016;55.030;38.710;2023-05-09T03:35:56;101580.94;;;5.10;45.21
74544;BME280;63016;55.030;38.710;2023-05-09T03:38:21;101590.78;;;5.20;45.18
74544;BME280;63016;55.030;38.710;2023-05-09T03:40:52;101585.44;;;5.23;45.23
74544;BME280;63016;55.030;38.710;2023-05-09T03:43:18;101584.28;;;5.27;45.72
74544;BME280;63016;55.030;38.710;2023-05-09T03:45:43;101590.69;;;5.35;45.32
74544;BME280;63016;55.030;38.710;2023-05-09T03:48:09;101581.00;;;5.39;45.43
74544;BME280;63016;55.030;38.710;2023-05-09T03:50:36;101582.28;;;5.46;45.44
74544;BME280;63016;55.030;38.710;2023-05-09T03:53:01;101589.78;;;5.51;45.81
74544;BME280;63016;55.030;38.710;2023-05-09T03:55:27;101592.75;;;5.59;45.60
74544;BME280;63016;55.030;38.710;2023-05-09T03:57:53;101585.81;;;5.59;45.58
74544;BME280;63016;55.030;38.710;2023-05-09T04:00:20;101594.91;;;5.66;45.95
74544;BME280;63016;55.030;38.710;2023-05-09T04:02:49;101598.13;;;5.70;45.49
74544;BME280;63016;55.030;38.710;2023-05-09T04:05:15;101598.50;;;5.78;45.69
74544;BME280;63016;55.030;38.710;2023-05-09T04:07:41;101584.72;;;5.78;45.45
74544;BME280;63016;55.030;38.710;2023-05-09T04:10:07;101595.19;;;5.90;46.24
74544;BME280;63016;55.030;38.710;2023-05-09T04:12:32;101589.47;;;6.00;45.74
74544;BME280;63016;55.030;38.710;2023-05-09T04:14:58;101598.50;;;6.07;46.02
74544;BME280;63016;55.030;38.710;2023-05-09T04:17:24;101597.13;;;6.15;45.67
74544;BME280;63016;55.030;38.710;2023-05-09T04:19:49;101598.38;;;6.23;45.57
74544;BME280;63016;55.030;38.710;2023-05-09T04:22:15;101592.75;;;6.30;46.03
74544;BME280;63016;55.030;38.710;2023-05-09T04:24:40;101593.09;;;6.38;46.28
74544;BME280;63016;55.030;38.710;2023-05-09T04:27:06;101601.41;;;6.43;46.08
74544;BME280;63016;55.030;38.710;2023-05-09T04:29:32;101588.78;;;6.52;46.31
74544;BME280;63016;55.030;38.710;2023-05-09T04:31:58;101589.84;;;6.62;46.11
74544;BME280;63016;55.030;38.710;2023-05-09T04:34:24;101602.03;;;6.74;45.76
74544;BME280;63016;55.030;38.710;2023-05-09T04:36:50;101597.09;;;6.84;46.24
74544;BME280;63016;55.030;38.710;2023-05-09T04:39:16;101598.47;;;6.89;46.07
74544;BME280;63016;55.030;38.710;2023-05-09T04:41:42;101597.84;;;6.99;46.60
74544;BME280;63016;55.030;38.710;2023-05-09T04:44:09;101588.34;;;7.12;46.34
74544;BME280;63016;55.030;38.710;2023-05-09T04:46:34;101590.09;;;7.24;46.64
74544;BME280;63016;55.030;38.710;2023-05-09T04:49:00;101599.47;;;7.39;46.89
74544;BME280;63016;55.030;38.710;2023-05-09T04:51:26;101598.44;;;7.55;46.79
74544;BME280;63016;55.030;38.710;2023-05-09T04:53:51;101599.16;;;7.69;46.33
74544;BME280;63016;55.030;38.710;2023-05-09T04:56:17;101601.75;;;7.82;46.64
74544;BME280;63016;55.030;38.710;2023-05-09T04:58:42;101596.34;;;7.98;46.72
74544;BME280;63016;55.030;38.710;2023-05-09T05:01:07;101596.72;;;8.17;47.51
74544;BME280;63016;55.030;38.710;2023-05-09T05:03:34;101591.25;;;8.33;46.64
74544;BME280;63016;55.030;38.710;2023-05-09T05:05:59;101588.53;;;8.47;46.91
74544;BME280;63016;55.030;38.710;2023-05-09T05:11:27;101608.63;;;9.05;46.73
74544;BME280;63016;55.030;38.710;2023-05-09T05:13:53;101571.00;;;9.09;45.66
74544;BME280;63016;55.030;38.710;2023-05-09T05:16:19;101585.28;;;9.38;45.79
74544;BME280;63016;55.030;38.710;2023-05-09T05:18:44;101594.78;;;9.73;46.10
74544;BME280;63016;55.030;38.710;2023-05-09T05:21:10;101597.97;;;9.99;45.89
74544;BME280;63016;55.030;38.710;2023-05-09T05:23:35;101599.41;;;10.25;45.67
74544;BME280;63016;55.030;38.710;2023-05-09T05:26:00;101595.38;;;10.53;46.07
74544;BME280;63016;55.030;38.710;2023-05-09T05:28:26;101583.09;;;10.76;45.86
74544;BME280;63016;55.030;38.710;2023-05-09T05:30:51;101609.63;;;11.14;45.69
74544;BME280;63016;55.030;38.710;2023-05-09T05:33:17;101607.88;;;11.45;45.35
74544;BME280;63016;55.030;38.710;2023-05-09T05:35:42;101599.78;;;11.78;45.81
74544;BME280;63016;55.030;38.710;2023-05-09T05:38:08;101599.13;;;12.17;45.71
74544;BME280;63016;55.030;38.710;2023-05-09T05:40:33;101594.78;;;12.46;45.37
74544;BME280;63016;55.030;38.710;2023-05-09T05:42:59;101591.50;;;12.73;45.43
74544;BME280;63016;55.030;38.710;2023-05-09T05:45:24;101590.78;;;13.00;45.21
74544;BME280;63016;55.030;38.710;2023-05-09T05:47:50;101601.38;;;13.28;44.34
74544;BME280;63016;55.030;38.710;2023-05-09T05:50:15;101596.81;;;13.49;44.15
74544;BME280;63016;55.030;38.710;2023-05-09T05:52:41;101593.38;;;13.76;43.78
74544;BME280;63016;55.030;38.710;2023-05-09T05:55:07;101599.63;;;14.03;43.64
74544;BME280;63016;55.030;38.710;2023-05-09T05:57:33;101591.09;;;14.19;43.90
74544;BME280;63016;55.030;38.710;2023-05-09T05:59:59;101587.16;;;14.50;43.98
74544;BME280;63016;55.030;38.710;2023-05-09T06:02:25;101569.41;;;14.62;43.06
74544;BME280;63016;55.030;38.710;2023-05-09T06:04:50;101564.44;;;14.77;42.69
74544;BME280;63016;55.030;38.710;2023-05-09T06:07:16;101557.47;;;14.94;43.29
74544;BME280;63016;55.030;38.710;2023-05-09T06:09:42;101588.22;;;15.45;45.16
74544;BME280;63016;55.030;38.710;2023-05-09T06:12:07;101578.91;;;15.85;44.73
74544;BME280;63016;55.030;38.710;2023-05-09T06:14:33;101569.84;;;16.46;42.91
74544;BME280;63016;55.030;38.710;2023-05-09T06:16:58;101586.00;;;16.67;42.18
74544;BME280;63016;55.030;38.710;2023-05-09T06:19:24;101580.59;;;16.69;42.03
74544;BME280;63016;55.030;38.710;2023-05-09T06:21:50;101574.03;;;16.73;42.38
74544;BME280;63016;55.030;38.710;2023-05-09T06:24:15;101585.38;;;16.90;42.02
74544;BME280;63016;55.030;38.710;2023-05-09T06:26:41;101582.91;;;16.96;42.17
74544;BME280;63016;55.030;38.710;2023-05-09T06:29:06;101576.47;;;16.99;41.69
74544;BME280;63016;55.030;38.710;2023-05-09T06:31:33;101578.44;;;17.05;41.81
74544;BME280;63016;55.030;38.710;2023-05-09T06:34:06;101578.44;;;17.13;41.66
74544;BME280;63016;55.030;38.710;2023-05-09T06:36:32;101569.16;;;17.26;41.46
74544;BME280;63016;55.030;38.710;2023-05-09T06:38:58;101576.06;;;17.43;41.52
74544;BME280;63016;55.030;38.710;2023-05-09T06:41:24;101576.69;;;17.53;40.74
74544;BME280;63016;55.030;38.710;2023-05-09T06:43:50;101570.91;;;17.58;40.80
74544;BME280;63016;55.030;38.710;2023-05-09T06:46:16;101561.53;;;17.55;40.44
74544;BME280;63016;55.030;38.710;2023-05-09T06:48:41;101566.44;;;17.66;40.58
74544;BME280;63016;55.030;38.710;2023-05-09T06:51:07;101552.88;;;17.78;40.22
74544;BME280;63016;55.030;38.710;2023-05-09T06:53:33;101547.19;;;17.89;40.65
74544;BME280;63016;55.030;38.710;2023-05-09T06:55:59;101552.59;;;18.04;40.93
74544;BME280;63016;55.030;38.710;2023-05-09T06:58:25;101558.94;;;18.17;40.93
74544;BME280;63016;55.030;38.710;2023-05-09T07:00:51;101540.09;;;18.20;40.75
74544;BME280;63016;55.030;38.710;2023-05-09T07:03:17;101536.41;;;18.30;39.99
74544;BME280;63016;55.030;38.710;2023-05-09T07:05:43;101549.19;;;18.41;39.78
74544;BME280;63016;55.030;38.710;2023-05-09T07:08:08;101548.81;;;18.52;39.17
74544;BME280;63016;55.030;38.710;2023-05-09T07:10:34;101553.38;;;18.58;38.83
74544;BME280;63016;55.030;38.710;2023-05-09T07:12:59;101542.75;;;18.66;38.26
74544;BME280;63016;55.030;38.710;2023-05-09T07:15:25;101553.09;;;18.76;39.01
74544;BME280;63016;55.030;38.710;2023-05-09T07:17:50;101537.59;;;18.88;39.28
74544;BME280;63016;55.030;38.710;2023-05-09T07:20:16;101531.72;;;19.00;39.41
74544;BME280;63016;55.030;38.710;2023-05-09T07:22:42;101543.41;;;19.21;39.22
74544;BME280;63016;55.030;38.710;2023-05-09T07:25:08;101541.38;;;19.38;39.40
74544;BME280;63016;55.030;38.710;2023-05-09T07:27:35;101533.63;;;19.51;38.23
74544;BME280;63016;55.030;38.710;2023-05-09T07:30:02;101536.53;;;19.56;37.75
74544;BME280;63016;55.030;38.710;2023-05-09T07:32:28;101528.31;;;19.51;37.18
74544;BME280;63016;55.030;38.710;2023-05-09T07:34:53;101534.25;;;19.53;37.14
74544;BME280;63016;55.030;38.710;2023-05-09T07:37:19;101523.09;;;19.58;37.54
74544;BME280;63016;55.030;38.710;2023-05-09T07:39:45;101511.06;;;19.55;37.76
74544;BME280;63016;55.030;38.710;2023-05-09T07:42:12;101517.38;;;19.69;37.24
74544;BME280;63016;55.030;38.710;2023-05-09T07:44:38;101515.81;;;19.74;37.10
74544;BME280;63016;55.030;38.710;2023-05-09T07:47:03;101517.44;;;19.75;36.82
74544;BME280;63016;55.030;38.710;2023-05-09T07:49:30;101510.72;;;19.73;36.97
74544;BME280;63016;55.030;38.710;2023-05-09T07:51:56;101508.94;;;19.80;36.88
74544;BME280;63016;55.030;38.710;2023-05-09T07:54:40;101512.66;;;19.86;37.19
74544;BME280;63016;55.030;38.710;2023-05-09T07:57:05;101513.28;;;20.02;37.15
74544;BME280;63016;55.030;38.710;2023-05-09T07:59:49;101514.59;;;20.13;38.51
74544;BME280;63016;55.030;38.710;2023-05-09T08:02:15;101513.38;;;20.16;37.16
74544;BME280;63016;55.030;38.710;2023-05-09T08:04:41;101489.38;;;20.17;37.18
74544;BME280;63016;55.030;38.710;2023-05-09T08:07:07;101500.06;;;20.31;36.93
74544;BME280;63016;55.030;38.710;2023-05-09T08:09:33;101474.47;;;20.16;35.92
74544;BME280;63016;55.030;38.710;2023-05-09T08:12:17;101494.72;;;20.24;35.59
74544;BME280;63016;55.030;38.710;2023-05-09T08:14:43;101445.63;;;19.85;35.92
74544;BME280;63016;55.030;38.710;2023-05-09T08:17:08;101495.41;;;20.11;36.39
74544;BME280;63016;55.030;38.710;2023-05-09T08:19:34;101482.28;;;20.03;35.59
74544;BME280;63016;55.030;38.710;2023-05-09T08:21:59;101489.59;;;20.01;35.88
74544;BME280;63016;55.030;38.710;2023-05-09T08:24:25;101466.38;;;19.82;35.57
74544;BME280;63016;55.030;38.710;2023-05-09T08:26:51;101487.00;;;19.86;35.84
74544;BME280;63016;55.030;38.710;2023-05-09T08:29:16;101482.81;;;19.77;36.09
74544;BME280;63016;55.030;38.710;2023-05-09T08:31:42;101479.50;;;19.68;36.44
74544;BME280;63016;55.030;38.710;2023-05-09T08:34:07;101483.50;;;19.64;36.10
74544;BME280;63016;55.030;38.710;2023-05-09T08:36:33;101473.66;;;19.58;35.69
74544;BME280;63016;55.030;38.710;2023-05-09T08:38:59;101466.81;;;19.49;35.49
74544;BME280;63016;55.030;38.710;2023-05-09T08:41:25;101467.25;;;19.38;35.10
74544;BME280;63016;55.030;38.710;2023-05-09T08:43:54;101464.00;;;19.21;34.88
74544;BME280;63016;55.030;38.710;2023-05-09T08:46:31;101468.31;;;19.07;35.86
74544;BME280;63016;55.030;38.710;2023-05-09T08:48:59;101473.69;;;18.99;34.62
74544;BME280;63016;55.030;38.710;2023-05-09T08:51:25;101464.84;;;18.77;34.57
74544;BME280;63016;55.030;38.710;2023-05-09T08:53:51;101456.47;;;18.65;35.57
74544;BME280;63016;55.030;38.710;2023-05-09T08:56:17;101453.81;;;18.65;35.63
74544;BME280;63016;55.030;38.710;2023-05-09T08:58:43;101459.13;;;18.65;36.78
74544;BME280;63016;55.030;38.710;2023-05-09T09:01:11;101453.19;;;18.63;37.92
74544;BME280;63016;55.030;38.710;2023-05-09T09:03:38;101454.84;;;18.64;39.11
74544;BME280;63016;55.030;38.710;2023-05-09T09:06:06;101450.66;;;18.70;39.05
74544;BME280;63016;55.030;38.710;2023-05-09T09:08:52;101447.50;;;18.74;38.43
74544;BME280;63016;55.030;38.710;2023-05-09T09:11:19;101435.09;;;18.75;38.20
74544;BME280;63016;55.030;38.710;2023-05-09T09:13:46;101441.78;;;18.86;37.73
74544;BME280;63016;55.030;38.710;2023-05-09T09:16:18;101435.75;;;18.92;37.74
74544;BME280;63016;55.030;38.710;2023-05-09T09:18:45;101422.69;;;18.90;36.90
74544;BME280;63016;55.030;38.710;2023-05-09T09:21:14;101424.44;;;18.83;35.33
74544;BME280;63016;55.030;38.710;2023-05-09T09:23:42;101425.53;;;18.74;34.99
74544;BME280;63016;55.030;38.710;2023-05-09T09:26:08;101431.34;;;18.69;35.34
74544;BME280;63016;55.030;38.710;2023-05-09T09:28:34;101421.94;;;18.67;35.41
74544;BME280;63016;55.030;38.710;2023-05-09T09:31:00;101418.47;;;18.66;35.25
74544;BME280;63016;55.030;38.710;2023-05-09T09:36:11;101393.56;;;18.46;35.57
74544;BME280;63016;55.030;38.710;2023-05-09T09:38:41;101418.38;;;18.60;37.38
74544;BME280;63016;55.030;38.710;2023-05-09T09:41:11;101423.69;;;18.74;37.87
74544;BME280;63016;55.030;38.710;2023-05-09T09:43:55;101413.56;;;18.93;37.71
74544;BME280;63016;55.030;38.710;2023-05-09T09:46:20;101401.63;;;18.97;36.25
74544;BME280;63016;55.030;38.710;2023-05-09T09:48:46;101402.72;;;19.03;36.69
74544;BME280;63016;55.030;38.710;2023-05-09T09:51:18;101406.19;;;19.03;36.10
74544;BME280;63016;55.030;38.710;2023-05-09T09:53:45;101408.28;;;19.08;37.80
74544;BME280;63016;55.030;38.710;2023-05-09T09:56:11;101402.25;;;19.14;39.06
74544;BME280;63016;55.030;38.710;2023-05-09T09:58:37;101407.50;;;19.29;37.82
74544;BME280;63016;55.030;38.710;2023-05-09T10:01:10;101411.13;;;19.42;38.13
74544;BME280;63016;55.030;38.710;2023-05-09T10:03:42;101385.94;;;19.46;37.46
74544;BME280;63016;55.030;38.710;2023-05-09T10:06:14;101392.47;;;19.65;36.67
74544;BME280;63016;55.030;38.710;2023-05-09T10:08:40;101389.31;;;19.76;36.37
74544;BME280;63016;55.030;38.710;2023-05-09T10:11:06;101387.94;;;19.81;36.05
74544;BME280;63016;55.030;38.710;2023-05-09T10:13:36;101390.81;;;19.86;35.94
74544;BME280;63016;55.030;38.710;2023-05-09T10:16:03;101376.41;;;19.88;35.83
74544;BME280;63016;55.030;38.710;2023-05-09T10:18:30;101390.94;;;19.99;35.40
74544;BME280;63016;55.030;38.710;2023-05-09T10:20:57;101391.72;;;19.93;35.50
74544;BME280;63016;55.030;38.710;2023-05-09T10:23:29;101396.69;;;20.02;35.71
74544;BME280;63016;55.030;38.710;2023-05-09T10:26:21;101377.94;;;20.04;36.18
74544;BME280;63016;55.030;38.710;2023-05-09T10:28:48;101372.53;;;20.12;35.42
74544;BME280;63016;55.030;38.710;2023-05-09T10:31:24;101383.41;;;20.24;35.50
74544;BME280;63016;55.030;38.710;2023-05-09T10:33:51;101380.19;;;20.28;35.53
74544;BME280;63016;55.030;38.710;2023-05-09T10:36:19;101387.16;;;20.36;35.26
74544;BME280;63016;55.030;38.710;2023-05-09T10:38:50;101373.91;;;20.36;34.92
74544;BME280;63016;55.030;38.710;2023-05-09T10:41:18;101377.31;;;20.30;34.67
74544;BME280;63016;55.030;38.710;2023-05-09T10:43:46;101378.97;;;20.31;34.51
74544;BME280;63016;55.030;38.710;2023-05-09T10:46:12;101368.38;;;20.31;34.63
74544;BME280;63016;55.030;38.710;2023-05-09T10:48:39;101368.78;;;20.35;34.58
74544;BME280;63016;55.030;38.710;2023-05-09T10:51:06;101372.09;;;20.37;34.42
74544;BME280;63016;55.030;38.710;2023-05-09T10:53:43;101368.84;;;20.41;34.66
74544;BME280;63016;55.030;38.710;2023-05-09T10:56:22;101362.97;;;20.46;34.85
74544;BME280;63016;55.030;38.710;2023-05-09T10:58:48;101349.16;;;20.50;34.80
74544;BME280;63016;55.030;38.710;2023-05-09T11:01:34;101353.47;;;20.58;35.34
74544;BME280;63016;55.030;38.710;2023-05-09T11:06:48;101349.78;;;20.59;34.57
74544;BME280;63016;55.030;38.710;2023-05-09T11:17:01;101341.19;;;20.92;34.90
74544;BME280;63016;55.030;38.710;2023-05-09T11:22:23;101343.38;;;20.82;33.81
74544;BME280;63016;55.030;38.710;2023-05-09T11:24:52;101334.91;;;20.58;33.71
74544;BME280;63016;55.030;38.710;2023-05-09T11:27:24;101335.06;;;20.50;33.90
74544;BME280;63016;55.030;38.710;2023-05-09T11:29:53;101330.16;;;20.47;33.72
74544;BME280;63016;55.030;38.710;2023-05-09T11:32:20;101327.84;;;20.37;33.94
74544;BME280;63016;55.030;38.710;2023-05-09T11:34:46;101330.44;;;20.31;33.69
74544;BME280;63016;55.030;38.710;2023-05-09T11:37:14;101326.50;;;20.20;33.68
74544;BME280;63016;55.030;38.710;2023-05-09T11:39:57;101317.84;;;20.11;34.60
74544;BME280;63016;55.030;38.710;2023-05-09T11:42:26;101321.50;;;20.03;33.55
74544;BME280;63016;55.030;38.710;2023-05-09T11:44:52;101314.69;;;19.94;33.45
74544;BME280;63016;55.030;38.710;2023-05-09T11:47:19;101303.38;;;19.79;33.06
74544;BME280;63016;55.030;38.710;2023-05-09T11:49:46;101312.72;;;19.75;33.66
74544;BME280;63016;55.030;38.710;2023-05-09T11:52:12;101312.00;;;19.66;33.81
74544;BME280;63016;55.030;38.710;2023-05-09T11:54:38;101308.66;;;19.58;33.70
74544;BME280;63016;55.030;38.710;2023-05-09T11:57:05;101297.38;;;19.49;33.51
74544;BME280;63016;55.030;38.710;2023-05-09T11:59:32;101299.13;;;19.42;34.18
74544;BME280;63016;55.030;38.710;2023-05-09T12:02:03;101299.78;;;19.44;34.13
74544;BME280;63016;55.030;38.710;2023-05-09T12:04:32;101285.53;;;19.45;34.24
74544;BME280;63016;55.030;38.710;2023-05-09T12:06:58;101285.94;;;19.48;33.94
74544;BME280;63016;55.030;38.710;2023-05-09T12:09:28;101283.50;;;19.47;33.51
74544;BME280;63016;55.030;38.710;2023-05-09T12:11:54;101266.19;;;19.44;34.05
74544;BME280;63016;55.030;38.710;2023-05-09T12:14:30;101270.75;;;19.57;34.15
74544;BME280;63016;55.030;38.710;2023-05-09T12:16:56;101261.66;;;19.60;34.05
74544;BME280;63016;55.030;38.710;2023-05-09T12:19:25;101267.69;;;19.75;34.00
74544;BME280;63016;55.030;38.710;2023-05-09T12:21:55;101265.91;;;19.82;34.18
74544;BME280;63016;55.030;38.710;2023-05-09T12:24:23;101259.66;;;19.90;33.98
74544;BME280;63016;55.030;38.710;2023-05-09T12:26:50;101256.44;;;20.01;34.05
74544;BME280;63016;55.030;38.710;2023-05-09T12:29:16;101253.06;;;20.14;34.04
74544;BME280;63016;55.030;38.710;2023-05-09T12:31:42;101261.03;;;20.20;33.81
74544;BME280;63016;55.030;38.710;2023-05-09T12:34:08;101260.47;;;20.25;34.18
74544;BME280;63016;55.030;38.710;2023-05-09T12:36:37;101255.22;;;20.32;33.33
74544;BME280;63016;55.030;38.710;2023-05-09T12:39:09;101256.84;;;20.33;33.48
74544;BME280;63016;55.030;38.710;2023-05-09T12:41:42;101256.41;;;20.29;33.61
74544;BME280;63016;55.030;38.710;2023-05-09T12:44:08;101252.50;;;20.18;32.97
74544;BME280;63016;55.030;38.710;2023-05-09T12:46:34;101244.66;;;20.03;33.18
74544;BME280;63016;55.030;38.710;2023-05-09T12:49:00;101249.13;;;20.03;33.27
74544;BME280;63016;55.030;38.710;2023-05-09T12:51:26;101240.09;;;19.91;33.37
74544;BME280;63016;55.030;38.710;2023-05-09T12:53:51;101235.38;;;19.86;33.15
74544;BME280;63016;55.030;38.710;2023-05-09T12:56:18;101234.28;;;19.74;33.30
74544;BME280;63016;55.030;38.710;2023-05-09T12:58:53;101230.16;;;19.71;33.33
74544;BME280;63016;55.030;38.710;2023-05-09T13:01:26;101230.16;;;19.71;33.16
74544;BME280;63016;55.030;38.710;2023-05-09T13:04:00;101222.06;;;19.73;33.35
74544;BME280;63016;55.030;38.710;2023-05-09T13:06:25;101215.16;;;19.79;33.77
74544;BME280;63016;55.030;38.710;2023-05-09T13:09:01;101207.44;;;19.84;34.04
74544;BME280;63016;55.030;38.710;2023-05-09T13:11:29;101211.19;;;19.96;34.22
74544;BME280;63016;55.030;38.710;2023-05-09T13:13:56;101210.00;;;20.05;34.20
74544;BME280;63016;55.030;38.710;2023-05-09T13:16:22;101205.97;;;20.09;33.98
74544;BME280;63016;55.030;38.710;2023-05-09T13:18:47;101202.94;;;20.12;33.42
74544;BME280;63016;55.030;38.710;2023-05-09T13:21:13;101199.88;;;20.15;33.63